Cascade, MT (59421)

10:17 AM MDT on October 23, 2014 (GMT -0600)
Trout Montana Fly Shop, Cascade, MT | Change Station
CLOSE
Current Station
Personal Weather Station
Location: Cascade, MT
Elevation: 3376 ft
Nearby Weather Stations

Elev 3376 ft 47.27 °N, 111.70 °W | Updated 2 minutes ago

Clear
Clear
59.7 °F
Feels Like 59.7 °F
N
2.0
Wind Variable Wind from SSE
Gusts 19.0 mph

Today
High -- | Low -- °F
--% Chance of Precip.
Yesterday
High -- | Low -- °F
Precip. -- in
7:56 AM 6:24 PM
Waning Crescent, 0% visible
Pressure 29.83 in
Visibility 10.0 miles
Clouds Clear
Dew Point 36 °F
Humidity 42%
Rainfall 0.00 in
Snow Depth Not available.
UV 1 out of 12
Pollen 3.80 out of 12
Air Quality Not available.
Flu Activity No Activity
METAR KGTF 231553Z 19008KT 10SM CLR 13/02 A2982 RMK AO2 SLP100 T01280022

More Conditions Fewer Conditions

Pressure 29.83 in
Visibility 10.0 miles
Clouds Clear
Dew Point 36 °F
Humidity 42%
Rainfall 0.00 in
Snow Depth Not available.
UV 1 out of 12
Pollen 3.80 out of 12
Air Quality Not available.
Flu Activity No Activity
METAR KGTF 231553Z 19008KT 10SM CLR 13/02 A2982 RMK AO2 SLP100 T01280022

More Conditions Fewer Conditions

10-Day Weather Forecast

Almanac

Astronomy

Oct. 23, 2014 Rise Set
Actual Time 7:56 AM MDT 6:24 PM MDT
Civil Twilight 7:25 AM MDT 6:55 PM MDT
Nautical Twilight 6:49 AM MDT 7:31 PM MDT
Astronomical Twilight 6:14 AM MDT 8:06 PM MDT
Moon 7:39 AM MDT 6:28 PM MDT
Length of Visible Light 11h 30m
Length of Day
10h 27m
Tomorrow will be 3m 11s shorter.
Waning Crescent, 0% of the Moon is Illuminated
Today
Waning Crescent
Oct 23
New
Oct 30
First Quarter
Nov 6
Full
Nov 14
Last Quarter

Today's Extremes

State Highs State Lows

Community

WunderPhotos

Upload Photos

1,764,290 photos uploaded!

Nearby

Snow Depth

Station Depth Elevation
Stringer Creek 0 in 6550 ft
Copper Bottom 0 in 5200 ft
Onion Park 0 in 7410 ft
Nevada Ridge 1 in 7020 ft
Pickfoot Creek 1 in 6650 ft

Earthquake Activity

City Distance Mag. Time & Date
No recent earthquake activity has been reported nearby.
Minimum magnitude displayed is 2.5.

Coastal Water Temperatures

Place Temperature
No Stations Reporting

Nearby Weather Stations